Time;durP1;ratioP1;P1;durP2;ratioP2;P2;SDS_P1;SDS_P2;PMS_P1;PMS_P2;Temp;Humidity;BMP_temperature;BMP_pressure;BME280_temperature;BME280_humidity;BME280_pressure;Samples;Min_cycle;Max_cycle;Signal;HPM_P1;HPM_P2
2021/12/08 00:00:12;;;;;;;2.97;1.70;;;;;;;4.48;69.86;96699.38;5043167;28;20675;-82
2021/12/08 00:02:42;;;;;;;3.67;1.93;;;;;;;4.48;69.89;96678.72;5057839;28;20639;-83
2021/12/08 00:05:12;;;;;;;2.47;1.77;;;;;;;4.51;69.73;96678.53;5053479;28;20616;-83
2021/12/08 00:07:40;;;;;;;2.00;1.40;;;;;;;4.46;68.59;96659.91;5059741;28;21245;-82
2021/12/08 00:10:17;;;;;;;3.50;1.80;;;;;;;4.50;68.76;96648.47;5050825;28;20613;-83
2021/12/08 00:13:04;;;;;;;3.20;2.10;;;;;;;4.53;67.91;96645.69;5038059;28;20628;-83
2021/12/08 00:15:34;;;;;;;3.63;1.67;;;;;;;4.55;69.28;96650.75;5072095;28;21202;-83
2021/12/08 00:18:05;;;;;;;2.80;1.60;;;;;;;4.55;68.87;96643.81;5059464;28;20639;-83
2021/12/08 00:20:34;;;;;;;2.70;1.60;;;;;;;4.53;67.64;96650.84;5059156;28;21269;-83
2021/12/08 00:23:04;;;;;;;3.73;1.50;;;;;;;4.52;67.84;96650.94;5091897;28;20642;-83
2021/12/08 00:25:34;;;;;;;4.23;2.00;;;;;;;4.54;69.11;96652.50;5044563;28;20640;-83
2021/12/08 00:28:03;;;;;;;3.17;2.20;;;;;;;4.56;68.76;96649.81;5060481;28;20663;-83
2021/12/08 00:30:32;;;;;;;3.40;1.63;;;;;;;4.60;68.05;96659.00;5071388;28;20639;-83
2021/12/08 00:33:01;;;;;;;3.00;1.57;;;;;;;4.61;67.73;96648.56;5058587;28;20629;-83
2021/12/08 00:49:09;;;;;;;2.87;1.63;;;;;;;4.74;68.13;96637.28;5066885;28;20633;-83
2021/12/08 00:51:37;;;;;;;2.43;1.57;;;;;;;4.75;67.19;96643.28;5061790;28;21462;-83
2021/12/08 00:54:06;;;;;;;2.93;1.50;;;;;;;4.75;67.15;96638.09;5045807;28;21214;-83
2021/12/08 00:56:34;;;;;;;2.07;1.30;;;;;;;4.77;66.95;96636.28;5046906;28;20623;-83
2021/12/08 00:59:03;;;;;;;2.50;1.37;;;;;;;4.79;67.25;96631.81;5061684;28;20635;-83
2021/12/08 01:01:31;;;;;;;2.93;2.30;;;;;;;4.82;67.73;96631.59;5066310;28;20671;-83
2021/12/08 01:03:59;;;;;;;3.10;1.87;;;;;;;4.82;67.84;96640.16;5061852;28;20624;-83
2021/12/08 01:06:29;;;;;;;3.87;1.70;;;;;;;4.83;68.66;96638.44;5062475;28;21040;-83
2021/12/08 01:08:57;;;;;;;2.03;1.30;;;;;;;4.85;68.40;96637.38;5062030;28;20634;-83
2021/12/08 01:11:26;;;;;;;4.33;1.40;;;;;;;4.84;68.38;96627.16;5044316;28;20631;-84
2021/12/08 01:13:54;;;;;;;2.43;1.47;;;;;;;4.87;68.15;96621.78;5057067;28;20628;-83
2021/12/08 01:16:23;;;;;;;2.50;1.37;;;;;;;4.85;68.80;96623.66;5058735;28;20634;-83
2021/12/08 01:18:51;;;;;;;4.57;2.03;;;;;;;4.85;69.74;96621.06;5062534;28;20644;-83
2021/12/08 01:21:20;;;;;;;2.30;1.30;;;;;;;4.80;70.60;96618.81;5061042;28;20714;-83
2021/12/08 01:23:50;;;;;;;1.53;1.20;;;;;;;4.80;70.15;96623.16;5048175;28;20730;-83
2021/12/08 01:26:19;;;;;;;2.00;1.40;;;;;;;4.79;72.52;96617.13;5043739;28;20672;-83
2021/12/08 01:28:49;;;;;;;2.63;1.53;;;;;;;4.75;71.46;96620.03;5047794;28;20624;-83
2021/12/08 01:31:18;;;;;;;2.93;1.40;;;;;;;4.69;72.53;96631.63;5075625;28;21174;-83
2021/12/08 01:33:46;;;;;;;2.03;1.50;;;;;;;4.69;71.92;96620.47;5045795;28;20654;-83
2021/12/08 01:36:15;;;;;;;2.87;1.27;;;;;;;4.69;73.33;96618.72;5065192;28;20643;-83
2021/12/08 01:38:43;;;;;;;1.70;1.07;;;;;;;4.72;73.09;96620.25;5073478;28;20635;-83
2021/12/08 01:41:13;;;;;;;2.00;1.10;;;;;;;4.76;73.55;96619.13;5062215;28;20631;-83
2021/12/08 01:43:43;;;;;;;1.87;1.30;;;;;;;4.79;74.34;96624.06;5040265;28;21001;-83
2021/12/08 01:46:13;;;;;;;1.60;0.97;;;;;;;4.77;74.13;96620.78;5061082;28;20734;-83
2021/12/08 01:48:43;;;;;;;3.57;1.40;;;;;;;4.77;75.96;96628.53;5056817;28;21243;-83
2021/12/08 01:51:14;;;;;;;2.40;1.23;;;;;;;4.77;77.46;96628.53;5060473;28;20623;-83
2021/12/08 01:53:45;;;;;;;3.63;1.17;;;;;;;4.78;76.26;96637.91;5062576;28;20706;-83
2021/12/08 01:56:18;;;;;;;1.60;1.20;;;;;;;4.78;77.73;96643.06;5058920;28;20623;-83
2021/12/08 01:58:46;;;;;;;2.40;1.40;;;;;;;4.78;76.37;96643.06;5059853;28;20629;-83
2021/12/08 02:01:23;;;;;;;2.50;1.43;;;;;;;4.78;76.52;96627.56;5057282;28;20652;-83
2021/12/08 02:03:51;;;;;;;1.90;1.40;;;;;;;4.77;78.00;96628.53;5059182;28;21205;-83
2021/12/08 02:06:21;;;;;;;2.70;1.20;;;;;;;4.79;78.06;96626.66;5047598;28;20663;-83
2021/12/08 02:08:52;;;;;;;2.27;1.20;;;;;;;4.76;78.30;96619.13;5064834;28;20675;-82
2021/12/08 02:11:22;;;;;;;2.10;1.20;;;;;;;4.74;79.35;96621.81;5060188;28;20629;-83
2021/12/08 02:13:54;;;;;;;3.63;1.40;;;;;;;4.74;79.52;96615.81;5057203;28;20663;-83
2021/12/08 02:16:22;;;;;;;2.13;1.40;;;;;;;4.72;80.64;96618.50;5041615;28;21000;-83
2021/12/08 02:18:50;;;;;;;2.67;1.40;;;;;;;4.74;81.50;96616.63;5061901;28;20616;-83
2021/12/08 02:21:27;;;;;;;1.83;1.20;;;;;;;4.78;82.41;96620.66;5061280;28;20651;-83
2021/12/08 02:23:57;;;;;;;2.63;1.33;;;;;;;4.79;82.78;96619.72;5060714;28;20743;-83
2021/12/08 02:26:26;;;;;;;2.60;1.20;;;;;;;4.79;82.66;96617.13;5060144;28;20633;-83
2021/12/08 02:28:54;;;;;;;1.70;1.20;;;;;;;4.82;83.55;96616.09;5091660;28;20651;-82
2021/12/08 02:31:32;;;;;;;1.90;1.13;;;;;;;4.86;83.86;96622.72;5057642;28;20694;-83
2021/12/08 02:47:54;;;;;;;2.93;2.20;;;;;;;4.75;85.34;96610.56;5062744;28;21211;-83
2021/12/08 02:50:25;;;;;;;5.63;2.73;;;;;;;4.72;84.98;96613.34;5094640;28;21029;-83
2021/12/08 02:52:56;;;;;;;4.87;3.00;;;;;;;4.71;86.15;96616.03;5059479;28;20628;-83
2021/12/08 02:55:27;;;;;;;3.90;2.40;;;;;;;4.69;85.60;96625.63;5092234;28;20668;-83
2021/12/08 02:57:55;;;;;;;5.57;3.03;;;;;;;4.68;86.80;96608.50;5057750;28;20616;-82
2021/12/08 03:00:26;;;;;;;4.20;2.97;;;;;;;4.66;85.84;96610.38;5058605;28;20635;-82
2021/12/08 03:02:59;;;;;;;4.00;2.70;;;;;;;4.65;86.98;96608.72;5044467;28;21025;-82
2021/12/08 03:05:28;;;;;;;6.43;3.63;;;;;;;4.66;86.99;96604.38;5060571;28;21219;-83
2021/12/08 03:07:59;;;;;;;4.63;2.60;;;;;;;4.62;86.78;96602.94;5061925;28;20652;-82
2021/12/08 03:10:29;;;;;;;6.17;3.60;;;;;;;4.59;87.44;96598.81;5049080;28;20632;-82
2021/12/08 03:12:58;;;;;;;5.03;2.70;;;;;;;4.57;87.87;96603.25;5062707;28;20663;-82
2021/12/08 03:15:26;;;;;;;4.30;3.00;;;;;;;4.56;88.21;96600.78;5049627;28;20642;-82
2021/12/08 03:17:54;;;;;;;5.50;2.80;;;;;;;4.53;88.80;96599.22;5047472;28;20648;-82
2021/12/08 03:20:37;;;;;;;5.17;2.90;;;;;;;4.56;88.16;96598.22;5064602;28;20636;-82
2021/12/08 03:23:07;;;;;;;5.07;3.23;;;;;;;4.51;87.91;96598.53;5056367;28;20648;-83
2021/12/08 03:25:39;;;;;;;4.00;2.97;;;;;;;4.49;88.59;96596.97;5056853;28;20633;-82
2021/12/08 03:28:14;;;;;;;4.10;3.07;;;;;;;4.51;88.57;96600.25;5060534;28;20666;-83
2021/12/08 03:30:57;;;;;;;4.77;3.37;;;;;;;4.51;89.54;96595.09;5040320;28;21010;-82
2021/12/08 03:33:26;;;;;;;4.83;3.20;;;;;;;4.47;89.53;96598.84;5042386;28;20630;-83
2021/12/08 03:35:55;;;;;;;4.20;2.60;;;;;;;4.46;89.80;96605.72;5059710;28;20647;-82
2021/12/08 03:38:24;;;;;;;3.30;2.70;;;;;;;4.47;89.96;96617.72;5040482;28;21180;-83
2021/12/08 03:40:53;;;;;;;7.10;3.40;;;;;;;4.50;89.77;96624.44;5042773;28;20620;-83
2021/12/08 03:43:21;;;;;;;3.50;2.70;;;;;;;4.47;89.78;96622.88;5042600;28;20617;-82
2021/12/08 03:45:51;;;;;;;5.10;2.60;;;;;;;4.46;90.28;96613.47;5057376;28;21078;-83
2021/12/08 03:48:24;;;;;;;3.90;2.63;;;;;;;4.44;89.95;96619.69;5058369;28;21277;-82
2021/12/08 03:50:56;;;;;;;4.30;2.60;;;;;;;4.37;90.71;96608.13;5055488;28;20651;-83
2021/12/08 03:53:26;;;;;;;3.77;3.00;;;;;;;4.39;89.99;96613.97;5055710;28;20648;-83
2021/12/08 03:55:55;;;;;;;4.70;3.20;;;;;;;4.42;90.05;96611.19;5042039;28;20642;-83
2021/12/08 03:58:24;;;;;;;6.23;2.90;;;;;;;4.42;90.64;96614.63;5049579;28;20616;-83
2021/12/08 04:00:59;;;;;;;3.73;2.97;;;;;;;4.42;90.85;96617.22;5060851;28;20685;-83
2021/12/08 04:03:32;;;;;;;3.70;3.00;;;;;;;4.44;90.70;96617.09;5072057;28;20651;-83
2021/12/08 04:06:06;;;;;;;4.90;2.90;;;;;;;4.46;90.81;96613.47;5042675;28;20660;-83
2021/12/08 04:08:42;;;;;;;3.60;2.43;;;;;;;4.45;91.24;96617.00;5059847;28;20682;-83
2021/12/08 04:11:12;;;;;;;3.37;2.63;;;;;;;4.44;90.66;96610.19;5056804;28;20636;-83
2021/12/08 04:13:45;;;;;;;6.70;2.87;;;;;;;4.46;91.69;96613.47;5053283;28;20636;-83
2021/12/08 04:16:15;;;;;;;4.67;3.50;;;;;;;4.49;91.35;96613.25;5043434;28;21218;-82
2021/12/08 04:18:43;;;;;;;4.90;2.90;;;;;;;4.52;90.45;96605.31;5056986;28;21244;-83
2021/12/08 04:21:15;;;;;;;6.00;2.90;;;;;;;4.53;90.85;96606.16;5056844;28;20674;-83
2021/12/08 04:23:46;;;;;;;3.53;2.50;;;;;;;4.55;92.01;96612.84;5044858;28;20628;-83
2021/12/08 04:26:17;;;;;;;6.57;2.93;;;;;;;4.53;91.19;96604.38;5057491;28;21260;-83
2021/12/08 04:28:45;;;;;;;3.70;2.70;;;;;;;4.53;90.79;96606.97;5041938;28;21176;-82
2021/12/08 04:31:18;;;;;;;5.33;3.13;;;;;;;4.53;91.19;96604.38;5040565;28;20636;-82
2021/12/08 04:33:47;;;;;;;5.03;2.97;;;;;;;4.55;91.18;96607.69;5058119;28;20633;-83
2021/12/08 04:36:17;;;;;;;4.60;3.20;;;;;;;4.57;91.00;96616.16;5044018;28;20643;-83
2021/12/08 04:38:51;;;;;;;6.03;3.00;;;;;;;4.56;91.16;96614.50;5058118;28;20620;-82
2021/12/08 04:41:25;;;;;;;3.37;2.77;;;;;;;4.56;91.66;96605.94;5056582;28;20690;-83
2021/12/08 04:44:01;;;;;;;5.13;2.80;;;;;;;4.56;91.73;96604.19;5089499;28;20715;-83
2021/12/08 04:46:48;;;;;;;7.37;3.97;;;;;;;4.58;91.48;96609.25;5054352;28;20730;-83
2021/12/08 04:49:33;;;;;;;9.47;4.60;;;;;;;4.59;91.87;96608.31;5052814;28;20657;-82
2021/12/08 04:52:07;;;;;;;6.03;3.57;;;;;;;4.61;91.63;96601.28;5056494;28;20632;-83
2021/12/08 05:00:39;;;;;;;6.47;3.57;;;;;;;4.66;92.26;96601.78;5055474;28;21267;-83
2021/12/08 05:03:25;;;;;;;4.50;3.30;;;;;;;4.68;92.26;96598.19;5054538;28;20714;-83
2021/12/08 05:06:18;;;;;;;5.80;3.50;;;;;;;4.68;92.47;96602.53;5058523;28;20695;-83
2021/12/08 05:08:58;;;;;;;5.20;3.13;;;;;;;4.73;92.84;96598.66;5074786;28;20663;-83
2021/12/08 05:11:30;;;;;;;4.27;2.93;;;;;;;4.68;91.99;96592.19;5071736;28;20643;-83
2021/12/08 05:14:02;;;;;;;4.40;3.50;;;;;;;4.67;91.65;96599.09;5054815;28;20651;-83
2021/12/08 05:16:32;;;;;;;4.57;3.50;;;;;;;4.67;91.63;96601.69;5054344;28;20643;-83
2021/12/08 05:19:05;;;;;;;5.13;3.60;;;;;;;4.65;92.12;96600.97;5044829;28;20640;-83
2021/12/08 05:21:37;;;;;;;4.50;3.37;;;;;;;4.67;91.97;96599.09;5074777;28;20641;-83
2021/12/08 05:24:09;;;;;;;5.33;4.20;;;;;;;4.69;92.86;96599.81;5057452;28;20632;-83
2021/12/08 05:26:44;;;;;;;5.63;3.50;;;;;;;4.73;92.91;96607.22;5077914;28;20641;-83
2021/12/08 05:29:15;;;;;;;5.30;3.73;;;;;;;4.76;91.80;96604.44;5059740;28;20661;-83
2021/12/08 05:31:44;;;;;;;8.73;3.80;;;;;;;4.77;92.08;96620.78;5063093;28;20646;-83
2021/12/08 05:34:12;;;;;;;5.03;3.80;;;;;;;4.80;92.19;96605.88;5062217;28;20693;-83
2021/12/08 05:36:43;;;;;;;4.40;3.30;;;;;;;4.80;92.50;96603.31;5063643;28;21060;-83
2021/12/08 05:39:16;;;;;;;5.10;3.87;;;;;;;4.81;92.46;96604.13;5061528;28;20626;-83
2021/12/08 05:41:47;;;;;;;9.57;4.93;;;;;;;4.85;91.74;96608.16;5061620;28;20608;-82
2021/12/08 05:44:15;;;;;;;5.47;3.90;;;;;;;4.87;91.84;96604.53;5060303;28;20631;-85
2021/12/08 05:46:46;;;;;;;109.53;48.73;;;;;;;4.90;91.57;96606.06;5093689;28;20687;-81
2021/12/08 05:49:17;;;;;;;150.40;58.50;;;;;;;4.92;92.69;96610.19;5045069;28;20758;-82
2021/12/08 05:51:46;;;;;;;35.40;17.87;;;;;;;4.93;92.12;96606.69;5049714;28;21210;-84
2021/12/08 05:54:17;;;;;;;7.43;5.30;;;;;;;4.93;92.24;96604.13;5097231;28;20679;-84
2021/12/08 05:56:47;;;;;;;6.70;4.10;;;;;;;4.95;91.66;96615.16;5066231;28;20643;-83
2021/12/08 05:59:16;;;;;;;5.40;4.03;;;;;;;4.91;92.34;96613.69;5048015;28;20739;-84
2021/12/08 06:01:48;;;;;;;4.90;3.70;;;;;;;4.89;92.10;96601.84;5075320;28;20662;-82
2021/12/08 06:04:16;;;;;;;7.20;3.77;;;;;;;4.85;91.71;96615.91;5064480;28;20631;-83
2021/12/08 06:06:47;;;;;;;4.33;3.60;;;;;;;4.85;91.45;96618.47;5042448;28;21056;-83
2021/12/08 06:09:18;;;;;;;6.07;3.97;;;;;;;4.86;92.41;96627.88;5061836;28;21219;-84
2021/12/08 06:11:48;;;;;;;5.53;3.60;;;;;;;4.87;92.35;96622.63;5045504;28;20644;-84
2021/12/08 06:14:18;;;;;;;5.47;4.20;;;;;;;4.85;91.94;96611.53;5078736;28;20704;-83
2021/12/08 06:16:50;;;;;;;5.83;4.33;;;;;;;4.88;91.66;96605.34;5063050;28;20723;-83
2021/12/08 06:19:19;;;;;;;9.47;3.83;;;;;;;4.89;92.00;96607.03;5063400;28;20620;-83
2021/12/08 06:21:49;;;;;;;5.67;4.50;;;;;;;4.92;91.95;96605.03;5076030;28;20643;-84
2021/12/08 06:24:18;;;;;;;7.53;4.97;;;;;;;4.92;92.54;96607.63;5059285;28;20643;-83
2021/12/08 06:26:48;;;;;;;4.57;3.90;;;;;;;4.90;91.99;96606.06;5090489;28;20631;-85
2021/12/08 06:29:17;;;;;;;7.60;5.17;;;;;;;4.90;91.79;96599.16;5061937;28;20636;-83
2021/12/08 06:31:49;;;;;;;6.10;4.60;;;;;;;4.94;93.11;96599.75;5046226;28;20668;-83
2021/12/08 06:34:17;;;;;;;9.70;4.33;;;;;;;4.94;92.93;96600.56;5078816;28;20642;-83
2021/12/08 06:36:51;;;;;;;8.73;5.50;;;;;;;4.93;93.12;96598.94;5065942;28;20628;-83
2021/12/08 06:39:23;;;;;;;6.30;5.23;;;;;;;4.94;91.89;96579.91;5077670;28;20627;-83
2021/12/08 06:41:56;;;;;;;6.80;5.70;;;;;;;4.96;92.18;96572.06;5063337;28;20639;-84
2021/12/08 06:44:27;;;;;;;5.93;5.30;;;;;;;4.93;91.86;96578.28;5066063;28;20650;-84
2021/12/08 06:46:57;;;;;;;6.90;5.27;;;;;;;4.84;91.58;96570.34;5068149;28;20638;-85
2021/12/08 06:49:29;;;;;;;6.43;5.50;;;;;;;4.77;92.59;96569.13;5062661;28;20691;-85
2021/12/08 06:52:02;;;;;;;10.60;9.60;;;;;;;4.78;93.07;96573.34;5054626;28;21187;-85
2021/12/08 06:54:33;;;;;;;7.00;4.77;;;;;;;4.80;93.51;96572.31;5062189;28;20632;-84
2021/12/08 06:57:06;;;;;;;5.87;4.20;;;;;;;4.83;94.44;96572.09;5075452;28;21289;-84
2021/12/08 06:59:40;;;;;;;6.47;4.40;;;;;;;4.87;95.89;96568.38;5064778;28;20731;-84
2021/12/08 07:02:22;;;;;;;5.10;3.43;;;;;;;4.91;96.66;96561.25;5063983;28;20642;-84
2021/12/08 07:05:07;;;;;;;6.00;3.90;;;;;;;4.97;96.84;96553.06;5074190;28;24274;-83
2021/12/08 07:07:35;;;;;;;5.30;3.70;;;;;;;5.03;98.80;96552.63;5060701;28;20675;-84
2021/12/08 07:10:07;;;;;;;4.53;3.30;;;;;;;5.12;98.92;96554.56;5044535;28;21125;-84
2021/12/08 07:12:40;;;;;;;4.77;2.73;;;;;;;5.19;99.88;96556.59;5047205;28;20663;-84
2021/12/08 07:15:14;;;;;;;3.40;2.50;;;;;;;5.28;99.06;96563.69;5089436;28;20656;-85
2021/12/08 07:17:45;;;;;;;4.23;2.33;;;;;;;5.35;99.69;96570.88;5061440;28;20642;-86
2021/12/08 07:20:29;;;;;;;3.40;2.27;;;;;;;5.45;98.98;96571.84;5058909;28;20668;-85
2021/12/08 07:22:58;;;;;;;3.10;2.00;;;;;;;5.52;99.04;96590.31;5059579;28;20644;-86
2021/12/08 07:25:30;;;;;;;2.63;2.20;;;;;;;5.61;98.69;96595.66;5062987;28;20629;-85
2021/12/08 07:27:59;;;;;;;2.63;1.93;;;;;;;5.67;98.64;96585.69;5047519;28;20654;-85
2021/12/08 07:30:31;;;;;;;3.10;2.30;;;;;;;5.72;98.42;96591.34;5056645;28;21400;-84
2021/12/08 07:33:03;;;;;;;2.40;2.10;;;;;;;5.80;98.46;96608.91;5060747;28;20671;-84
2021/12/08 07:35:36;;;;;;;2.70;2.27;;;;;;;5.85;97.78;96607.66;5087941;28;21242;-85
2021/12/08 07:38:05;;;;;;;3.40;2.67;;;;;;;5.91;97.77;96607.19;5060134;28;20632;-85
2021/12/08 07:40:36;;;;;;;5.00;3.60;;;;;;;5.90;97.42;96605.53;5037420;28;20640;-85
2021/12/08 07:43:08;;;;;;;4.27;3.30;;;;;;;5.84;96.83;96598.22;5061173;28;20628;-86
2021/12/08 07:45:40;;;;;;;8.20;4.90;;;;;;;5.78;96.55;96610.81;5072008;28;20645;-86
2021/12/08 07:48:14;;;;;;;6.63;4.60;;;;;;;5.80;96.30;96604.59;5074640;28;20632;-86
2021/12/08 07:50:46;;;;;;;7.70;5.10;;;;;;;5.79;95.60;96610.69;5048170;28;20742;-86
2021/12/08 07:53:17;;;;;;;7.30;4.90;;;;;;;5.85;95.43;96611.97;5046940;28;20638;-86
2021/12/08 07:55:48;;;;;;;6.77;4.87;;;;;;;5.88;95.10;96604.00;5057154;28;20637;-86
2021/12/08 07:58:21;;;;;;;12.37;5.97;;;;;;;5.87;94.75;96590.25;5047446;28;20993;-86
2021/12/08 08:00:51;;;;;;;8.13;4.83;;;;;;;5.91;94.79;96596.00;5048573;28;20631;-86
2021/12/08 08:03:21;;;;;;;6.67;5.30;;;;;;;5.94;94.93;96582.84;5045500;28;20737;-86
2021/12/08 08:05:51;;;;;;;4.83;3.27;;;;;;;5.94;94.43;96578.53;5062039;28;20640;-86
2021/12/08 08:08:24;;;;;;;7.50;4.90;;;;;;;6.02;94.89;96580.53;5060927;28;20624;-86
2021/12/08 08:10:57;;;;;;;6.10;3.53;;;;;;;6.03;94.96;96571.81;5061527;28;20755;-86
2021/12/08 08:13:28;;;;;;;4.30;3.07;;;;;;;6.02;94.77;96573.59;5059517;28;22009;-86
2021/12/08 08:16:05;;;;;;;4.30;2.77;;;;;;;6.02;95.18;96588.31;5063108;28;20742;-86
2021/12/08 08:18:35;;;;;;;3.60;2.77;;;;;;;6.01;95.61;96578.88;5028883;28;20631;-86
2021/12/08 08:21:12;;;;;;;3.90;2.33;;;;;;;6.09;95.45;96592.91;5061527;28;20628;-86
2021/12/08 08:23:40;;;;;;;2.67;2.33;;;;;;;6.19;95.28;96591.25;5054217;28;20732;-87
2021/12/08 08:26:10;;;;;;;3.43;2.47;;;;;;;6.22;94.82;96581.53;5062586;28;21015;-86
2021/12/08 08:28:41;;;;;;;4.37;3.13;;;;;;;6.31;94.77;96578.22;5043510;28;20732;-86
2021/12/08 08:31:12;;;;;;;3.57;2.57;;;;;;;6.33;94.74;96580.69;5061273;28;20687;-86
2021/12/08 08:33:42;;;;;;;3.73;2.73;;;;;;;6.37;94.50;96577.75;5062278;28;20648;-87
2021/12/08 08:36:13;;;;;;;5.93;3.10;;;;;;;6.41;94.48;96583.53;5056303;28;20731;-87
2021/12/08 08:38:46;;;;;;;3.40;2.33;;;;;;;6.46;94.87;96584.81;5057031;28;21184;-87
2021/12/08 08:41:17;;;;;;;4.60;3.57;;;;;;;6.47;95.02;96589.06;5057730;28;20722;-87
2021/12/08 08:43:48;;;;;;;8.20;6.10;;;;;;;6.52;95.12;96591.31;5061355;28;20624;-87
2021/12/08 08:46:19;;;;;;;12.70;8.53;;;;;;;6.49;94.33;96600.13;5059604;28;20738;-86
2021/12/08 08:48:54;;;;;;;11.43;7.83;;;;;;;6.38;92.99;96607.06;5040751;28;20620;-87
2021/12/08 08:51:30;;;;;;;12.47;8.90;;;;;;;6.33;93.29;96603.97;5056482;28;22287;-87
2021/12/08 08:54:02;;;;;;;12.63;8.03;;;;;;;6.28;93.11;96600.91;5056856;28;20711;-87
2021/12/08 08:56:33;;;;;;;12.47;8.77;;;;;;;6.24;92.75;96596.91;5043634;28;21424;-86
2021/12/08 08:59:07;;;;;;;13.43;9.90;;;;;;;6.23;92.65;96592.69;5061402;28;20635;-86
2021/12/08 09:01:38;;;;;;;11.93;8.53;;;;;;;6.20;92.81;96593.72;5097379;28;20757;-87
2021/12/08 09:04:09;;;;;;;11.63;8.60;;;;;;;6.19;93.02;96581.75;5079143;28;21183;-87
2021/12/08 09:06:40;;;;;;;10.83;7.87;;;;;;;6.20;92.66;96575.63;5064527;28;20668;-87
2021/12/08 09:09:13;;;;;;;11.30;8.17;;;;;;;6.23;92.64;96583.16;5049305;28;20655;-87
2021/12/08 09:11:47;;;;;;;12.93;9.10;;;;;;;6.24;92.63;96597.75;5076139;28;21507;-87
2021/12/08 09:14:20;;;;;;;9.60;7.67;;;;;;;6.26;93.05;96620.94;5063654;28;20732;-87
2021/12/08 09:16:53;;;;;;;10.20;7.43;;;;;;;6.26;93.21;96626.09;5059519;28;20645;-86
2021/12/08 09:19:24;;;;;;;21.97;15.63;;;;;;;6.23;92.76;96624.56;5066208;28;20689;-86
2021/12/08 09:21:59;;;;;;;16.50;10.30;;;;;;;6.19;92.74;96630.91;5050732;28;21222;-87
2021/12/08 09:24:51;;;;;;;10.70;8.27;;;;;;;6.19;93.33;96625.75;5063778;28;20632;-87
2021/12/08 09:27:24;;;;;;;21.20;14.10;;;;;;;6.19;93.48;96630.91;5062207;28;20640;-87
2021/12/08 09:29:58;;;;;;;14.90;9.10;;;;;;;6.21;93.25;96629.03;5050372;28;20706;-87
2021/12/08 09:32:34;;;;;;;11.63;7.73;;;;;;;6.24;93.29;96638.31;5095149;28;20794;-86
2021/12/08 09:35:10;;;;;;;15.40;8.23;;;;;;;6.27;93.21;96630.31;5052028;28;20652;-86
2021/12/08 09:37:44;;;;;;;10.30;6.80;;;;;;;6.29;92.64;96631.88;5043553;28;20730;-86
2021/12/08 09:40:22;;;;;;;10.37;7.77;;;;;;;6.31;93.10;96635.16;5065548;28;20769;-86
2021/12/08 09:42:53;;;;;;;12.67;8.63;;;;;;;6.34;93.58;96618.59;5079577;28;20637;-86
2021/12/08 09:45:27;;;;;;;14.83;7.70;;;;;;;6.39;93.45;96614.72;5044363;28;21404;-86
2021/12/08 09:47:56;;;;;;;16.60;8.63;;;;;;;6.45;93.34;96621.19;5064946;28;20642;-86
2021/12/08 09:50:24;;;;;;;20.00;10.33;;;;;;;6.46;93.23;96617.66;5081127;28;20674;-85
2021/12/08 09:52:52;;;;;;;22.13;14.60;;;;;;;6.43;92.56;96610.94;5076836;28;20658;-85
2021/12/08 09:55:20;;;;;;;33.17;19.70;;;;;;;6.43;92.72;96620.47;5063108;28;20724;-85
2021/12/08 09:57:49;;;;;;;81.83;40.97;;;;;;;6.47;93.05;96620.13;5065279;28;20636;-85
2021/12/08 10:00:22;;;;;;;74.27;39.63;;;;;;;6.47;92.72;96604.59;5064536;28;20628;-84
2021/12/08 10:02:57;;;;;;;34.33;20.83;;;;;;;6.50;93.01;96599.19;5049585;28;20997;-85
2021/12/08 10:05:27;;;;;;;12.03;8.80;;;;;;;6.50;92.76;96609.53;5064998;28;20634;-86
2021/12/08 10:07:57;;;;;;;12.63;8.50;;;;;;;6.50;92.58;96606.13;5055314;28;21249;-85
2021/12/08 10:10:26;;;;;;;13.10;8.17;;;;;;;6.50;92.70;96600.97;5045643;28;21203;-86
2021/12/08 10:12:57;;;;;;;14.30;10.70;;;;;;;6.48;92.41;96589.88;5060583;28;20656;-86
2021/12/08 10:15:26;;;;;;;18.83;11.47;;;;;;;6.49;93.21;96599.31;5062355;28;20632;-85
2021/12/08 10:17:56;;;;;;;10.80;8.23;;;;;;;6.48;93.37;96601.06;5064996;28;20629;-86
2021/12/08 10:20:29;;;;;;;23.57;18.10;;;;;;;6.49;93.21;96602.72;5046685;28;20731;-86
2021/12/08 10:23:15;;;;;;;10.90;8.20;;;;;;;6.50;92.64;96599.19;5079420;28;20631;-85
2021/12/08 10:25:45;;;;;;;12.80;9.10;;;;;;;6.52;93.82;96604.25;5097073;28;20722;-86
2021/12/08 10:28:17;;;;;;;12.93;9.70;;;;;;;6.55;93.05;96611.78;5046948;28;21370;-85
2021/12/08 10:30:48;;;;;;;15.00;11.07;;;;;;;6.57;93.63;96608.16;5061931;28;20639;-86
2021/12/08 10:33:51;;;;;;;17.30;11.67;;;;;;;6.58;93.69;96602.84;5058030;28;20825;-85
2021/12/08 10:36:35;;;;;;;13.10;10.17;;;;;;;6.59;94.07;96596.72;5060203;28;20759;-86
2021/12/08 10:39:07;;;;;;;15.03;9.17;;;;;;;6.60;93.28;96598.38;5061661;28;21315;-86
2021/12/08 10:42:14;;;;;;;14.53;10.70;;;;;;;6.63;93.77;96594.69;5049681;28;20639;-88
2021/12/08 10:44:50;;;;;;;17.27;13.07;;;;;;;6.63;92.99;96592.94;5047391;28;20667;-86
2021/12/08 10:47:31;;;;;;;22.27;18.90;;;;;;;6.58;93.31;96587.31;5044107;28;20635;-86
2021/12/08 10:55:40;;;;;;;15.60;13.17;;;;;;;6.62;94.08;96565.41;5058573;28;20719;-86
2021/12/08 10:58:10;;;;;;;19.30;15.80;;;;;;;6.69;93.44;96568.31;5058624;28;20648;-86
2021/12/08 11:00:40;;;;;;;15.83;12.20;;;;;;;6.74;94.13;96566.22;5045568;28;20699;-85
2021/12/08 11:03:11;;;;;;;17.60;12.10;;;;;;;6.80;94.66;96573.53;5063691;28;21166;-86
2021/12/08 11:05:49;;;;;;;16.80;7.73;;;;;;;6.86;93.79;96567.88;5057972;28;21231;-85
2021/12/08 11:08:21;;;;;;;9.80;7.60;;;;;;;6.89;94.19;96563.25;5059915;28;20689;-85
2021/12/08 11:10:52;;;;;;;8.03;6.40;;;;;;;6.94;93.90;96557.72;5076243;28;20624;-86
2021/12/08 11:13:22;;;;;;;13.93;10.90;;;;;;;6.91;94.38;96543.22;5056373;28;21095;-85
2021/12/08 11:16:01;;;;;;;11.37;9.80;;;;;;;6.89;93.32;96545.13;5062578;28;21029;-87
2021/12/08 11:18:30;;;;;;;15.60;11.27;;;;;;;6.83;93.79;96549.97;5042011;28;20623;-85
2021/12/08 11:21:02;;;;;;;15.07;11.83;;;;;;;6.81;92.88;96549.25;5061351;28;21066;-85
2021/12/08 11:23:45;;;;;;;13.17;10.73;;;;;;;6.79;93.58;96539.00;5047601;28;21049;-86
2021/12/08 11:26:22;;;;;;;12.53;10.80;;;;;;;6.82;93.18;96545.72;5074327;28;20639;-86
2021/12/08 11:29:00;;;;;;;13.73;11.00;;;;;;;6.81;92.78;96538.88;5056774;28;20614;-85
2021/12/08 11:31:31;;;;;;;17.63;13.07;;;;;;;6.86;93.58;96540.19;5075534;28;21232;-85
2021/12/08 11:34:03;;;;;;;20.70;13.20;;;;;;;6.91;92.52;96550.19;5048506;28;20648;-85
2021/12/08 11:36:38;;;;;;;33.17;21.67;;;;;;;6.93;92.75;96532.75;5077998;28;20658;-85
2021/12/08 11:39:14;;;;;;;31.60;20.13;;;;;;;6.97;93.39;96539.34;5051508;28;20650;-85
2021/12/08 11:41:44;;;;;;;27.70;20.13;;;;;;;6.97;93.57;96528.97;5062423;28;20624;-86
2021/12/08 11:44:14;;;;;;;24.17;17.30;;;;;;;6.97;92.42;96521.19;5053835;28;20985;-85
2021/12/08 11:47:01;;;;;;;18.97;14.67;;;;;;;6.98;93.39;96531.44;5063905;28;21192;-84
2021/12/08 11:49:32;;;;;;;17.37;12.00;;;;;;;6.96;92.47;96524.72;5058519;28;20694;-85
2021/12/08 11:52:09;;;;;;;13.80;9.70;;;;;;;6.92;92.95;96521.56;5060666;28;20660;-84
2021/12/08 11:54:42;;;;;;;10.47;8.83;;;;;;;6.90;93.37;96522.63;5063401;28;20673;-84
2021/12/08 11:57:14;;;;;;;13.70;9.63;;;;;;;6.89;93.50;96518.41;5059118;28;21215;-84
2021/12/08 11:59:59;;;;;;;13.50;9.70;;;;;;;6.87;92.57;96513.34;5045125;28;20645;-84
2021/12/08 12:02:31;;;;;;;12.97;10.17;;;;;;;6.85;93.41;96509.22;5043031;28;20633;-83
2021/12/08 12:05:00;;;;;;;14.07;12.10;;;;;;;6.84;92.32;96515.31;5074070;28;20639;-82
2021/12/08 12:07:29;;;;;;;20.03;15.70;;;;;;;6.83;93.13;96500.75;5058891;28;20663;-82
2021/12/08 12:09:58;;;;;;;18.17;13.43;;;;;;;6.86;92.77;96500.50;5061245;28;20636;-82
2021/12/08 12:12:26;;;;;;;16.87;13.57;;;;;;;6.88;94.04;96496.81;5063493;28;20693;-81
2021/12/08 12:14:54;;;;;;;17.07;15.00;;;;;;;6.91;93.71;96503.53;5059788;28;20636;-86
2021/12/08 12:17:22;;;;;;;22.40;16.97;;;;;;;6.93;93.77;96512.84;5038676;28;21279;-85
2021/12/08 12:19:57;;;;;;;44.63;29.10;;;;;;;6.96;92.88;96517.78;5045522;28;20980;-86
2021/12/08 12:22:41;;;;;;;27.83;18.50;;;;;;;6.99;93.36;96516.72;5046442;28;21021;-85
2021/12/08 12:25:29;;;;;;;21.17;12.60;;;;;;;6.99;93.47;96514.97;5041143;28;20635;-86
2021/12/08 12:28:21;;;;;;;12.03;9.33;;;;;;;7.00;93.40;96518.38;5058520;28;20735;-85
2021/12/08 12:30:55;;;;;;;10.70;8.93;;;;;;;7.01;94.17;96523.44;5047817;28;20637;-85
2021/12/08 12:33:24;;;;;;;10.90;8.83;;;;;;;7.03;93.73;96518.94;5051275;28;20728;-85
2021/12/08 12:35:53;;;;;;;9.90;7.63;;;;;;;7.05;94.27;96517.88;5079250;28;20651;-85
2021/12/08 12:38:35;;;;;;;8.50;7.00;;;;;;;7.09;93.45;96524.44;5068058;28;20655;-85